createdAt,value
2023-02-19T00:01:47.301Z,37.90
2023-02-19T00:04:20.235Z,44.45
2023-02-19T00:06:48.889Z,44.95
2023-02-19T00:09:19.185Z,49.30
2023-02-19T00:11:47.669Z,47.35
2023-02-19T00:14:21.468Z,45.45
2023-02-19T00:16:49.188Z,42.90
2023-02-19T00:19:19.599Z,38.40
2023-02-19T00:21:46.977Z,45.35
2023-02-19T00:24:15.250Z,43.38
2023-02-19T00:26:43.723Z,43.78
2023-02-19T00:29:18.385Z,43.65
2023-02-19T00:31:46.463Z,41.78
2023-02-19T00:34:14.481Z,46.67
2023-02-19T00:36:42.929Z,47.50
2023-02-19T00:39:15.632Z,37.72
2023-02-19T00:41:43.537Z,40.25
2023-02-19T00:44:11.727Z,35.97
2023-02-19T00:46:42.717Z,30.25
2023-02-19T00:49:21.425Z,38.63
2023-02-19T00:51:49.682Z,28.08
2023-02-19T00:54:17.567Z,34.00
2023-02-19T00:56:45.385Z,35.33
2023-02-19T00:59:12.498Z,32.28
2023-02-19T01:01:39.599Z,30.77
2023-02-19T01:04:07.083Z,26.17
2023-02-19T01:06:35.397Z,28.58
2023-02-19T01:09:04.341Z,28.02
2023-02-19T01:11:31.631Z,27.50
2023-02-19T01:14:00.819Z,19.85
2023-02-19T01:16:28.666Z,19.23
2023-02-19T01:18:57.653Z,19.20
2023-02-19T01:21:27.239Z,20.90
2023-02-19T01:23:55.481Z,19.15
2023-02-19T01:26:28.579Z,18.65
2023-02-19T01:28:55.592Z,17.77
2023-02-19T01:31:25.337Z,16.60
2023-02-19T01:33:59.524Z,17.33
2023-02-19T01:36:27.843Z,17.83
2023-02-19T01:38:55.648Z,33.03
2023-02-19T01:41:25.568Z,15.70
2023-02-19T01:44:02.586Z,21.00
2023-02-19T01:46:35.781Z,16.77
2023-02-19T01:49:12.982Z,17.08
2023-02-19T01:51:45.508Z,20.75
2023-02-19T01:54:16.149Z,13.48
2023-02-19T01:56:46.146Z,15.05
2023-02-19T01:59:13.680Z,15.07
2023-02-19T02:01:41.814Z,14.23
2023-02-19T02:04:13.442Z,18.52
2023-02-19T02:07:02.922Z,20.15
2023-02-19T02:09:49.912Z,14.60
2023-02-19T02:12:16.893Z,14.90
2023-02-19T02:14:47.877Z,18.65
2023-02-19T02:17:31.669Z,13.55
2023-02-19T02:20:17.834Z,10.30
2023-02-19T02:25:59.489Z,19.45
2023-02-19T02:29:20.530Z,18.25
2023-02-19T02:32:31.047Z,15.05
2023-02-19T02:35:05.902Z,25.30
2023-02-19T02:37:37.728Z,20.27
2023-02-19T02:40:07.242Z,18.00
2023-02-19T02:42:35.930Z,18.23
2023-02-19T02:45:35.185Z,14.73
2023-02-19T02:48:29.941Z,19.67
2023-02-19T02:51:15.840Z,31.95
2023-02-19T02:54:29.278Z,14.50
2023-02-19T02:56:58.351Z,17.60
2023-02-19T02:59:34.169Z,22.75
2023-02-19T03:02:14.221Z,20.58
2023-02-19T03:05:29.026Z,23.25
2023-02-19T03:08:10.752Z,14.48
2023-02-19T03:10:45.157Z,21.25
2023-02-19T03:13:37.251Z,23.65
2023-02-19T03:16:34.426Z,20.02
2023-02-19T03:19:21.732Z,23.30
2023-02-19T03:21:57.450Z,21.85
2023-02-19T03:24:58.852Z,19.83
2023-02-19T03:27:29.996Z,23.73
2023-02-19T03:30:01.654Z,21.80
2023-02-19T03:32:59.059Z,16.60
2023-02-19T03:35:32.300Z,14.23
2023-02-19T03:38:18.802Z,19.33
2023-02-19T03:41:07.679Z,19.45
2023-02-19T03:43:54.034Z,16.95
2023-02-19T03:46:41.090Z,20.58
2023-02-19T03:49:25.011Z,23.42
2023-02-19T03:51:58.942Z,20.02
2023-02-19T03:54:39.426Z,21.75
2023-02-19T03:57:23.974Z,20.92
2023-02-19T04:00:02.800Z,16.58
2023-02-19T04:03:02.913Z,19.42
2023-02-19T04:05:32.798Z,15.48
2023-02-19T04:08:09.339Z,22.70
2023-02-19T04:10:43.153Z,21.65
2023-02-19T04:13:18.611Z,16.88
2023-02-19T04:15:49.306Z,16.65
2023-02-19T04:18:25.435Z,20.67
2023-02-19T04:20:53.133Z,16.48
2023-02-19T04:23:24.965Z,16.85
2023-02-19T04:25:56.704Z,16.60
2023-02-19T04:28:23.686Z,21.15
2023-02-19T04:30:50.826Z,13.93
2023-02-19T04:33:17.941Z,14.07
2023-02-19T04:35:45.032Z,13.52
2023-02-19T04:38:13.726Z,14.55
2023-02-19T04:40:40.828Z,14.18
2023-02-19T04:43:07.809Z,15.00
2023-02-19T04:45:34.703Z,19.15
2023-02-19T04:48:01.578Z,21.17
2023-02-19T04:50:28.492Z,11.85
2023-02-19T04:52:55.476Z,12.55
2023-02-19T04:55:22.887Z,16.17
2023-02-19T04:57:50.020Z,15.75
2023-02-19T05:00:17.096Z,14.07
2023-02-19T05:02:44.141Z,19.73
2023-02-19T05:05:11.091Z,21.00
2023-02-19T05:07:38.028Z,19.98
2023-02-19T05:10:05.449Z,23.90
2023-02-19T05:12:32.450Z,19.65
2023-02-19T05:14:59.379Z,18.73
2023-02-19T05:17:26.538Z,19.90
2023-02-19T05:19:53.508Z,18.42
2023-02-19T05:22:20.717Z,22.05
2023-02-19T05:24:47.702Z,15.38
2023-02-19T05:27:14.717Z,16.20
2023-02-19T05:29:41.730Z,16.67
2023-02-19T05:32:08.781Z,15.38
2023-02-19T05:34:35.929Z,21.33
2023-02-19T05:37:02.881Z,16.67
2023-02-19T05:39:29.776Z,18.88
2023-02-19T05:41:56.692Z,15.82
2023-02-19T05:44:23.883Z,18.00
2023-02-19T05:46:50.840Z,20.75
2023-02-19T05:49:17.789Z,16.48
2023-02-19T05:51:44.808Z,14.45
2023-02-19T05:54:11.825Z,15.27
2023-02-19T05:56:41.489Z,23.90
2023-02-19T05:59:19.804Z,19.02
2023-02-19T06:01:48.391Z,20.00
2023-02-19T06:04:15.807Z,22.65
2023-02-19T06:06:43.546Z,15.40
2023-02-19T06:09:11.324Z,20.70
2023-02-19T06:11:39.823Z,21.25
2023-02-19T06:14:07.634Z,19.55
2023-02-19T06:16:34.564Z,19.27
2023-02-19T06:19:04.630Z,26.35
2023-02-19T06:21:31.681Z,20.42
2023-02-19T06:23:58.663Z,24.63
2023-02-19T06:26:26.100Z,20.33
2023-02-19T06:28:54.613Z,19.77
2023-02-19T06:31:22.850Z,23.77
2023-02-19T06:33:50.908Z,18.52
2023-02-19T06:36:20.861Z,18.45
2023-02-19T06:38:48.176Z,13.23
2023-02-19T06:41:15.614Z,15.07
2023-02-19T06:43:42.939Z,15.27
2023-02-19T06:46:13.290Z,15.57
2023-02-19T06:48:42.759Z,16.30
2023-02-19T06:51:15.135Z,14.50
2023-02-19T06:53:42.234Z,15.27
2023-02-19T06:56:31.975Z,14.73
2023-02-19T06:59:02.845Z,9.20
2023-02-19T07:01:32.213Z,11.27
2023-02-19T07:03:59.633Z,12.48
2023-02-19T07:06:27.732Z,11.77
2023-02-19T07:08:56.982Z,17.17
2023-02-19T07:11:24.869Z,10.60
2023-02-19T07:13:57.017Z,13.77
2023-02-19T07:16:24.765Z,10.23
2023-02-19T07:18:51.969Z,13.43
2023-02-19T07:21:19.347Z,9.82
2023-02-19T07:23:46.813Z,10.73
2023-02-19T07:26:16.912Z,8.35
2023-02-19T07:28:46.188Z,9.30
2023-02-19T07:31:14.902Z,15.27
2023-02-19T07:33:46.512Z,13.20
2023-02-19T07:36:16.881Z,11.88
2023-02-19T07:38:44.818Z,11.65
2023-02-19T07:41:12.312Z,13.98
2023-02-19T07:43:40.088Z,12.00
2023-02-19T07:46:14.367Z,12.57
2023-02-19T07:48:43.274Z,10.00
2023-02-19T07:51:18.985Z,14.45
2023-02-19T07:56:14.707Z,11.15
2023-02-19T07:58:42.342Z,17.60
2023-02-19T08:01:12.184Z,18.25
2023-02-19T08:03:39.796Z,12.38
2023-02-19T08:06:07.718Z,9.48
2023-02-19T08:08:34.681Z,12.52
2023-02-19T08:11:21.895Z,20.30
2023-02-19T08:13:53.223Z,11.00
2023-02-19T08:16:33.133Z,15.45
2023-02-19T08:19:04.112Z,22.27
2023-02-19T08:21:33.461Z,14.75
2023-02-19T08:24:01.365Z,13.55
2023-02-19T08:26:28.356Z,10.73
2023-02-19T08:28:55.351Z,13.60
2023-02-19T08:31:22.483Z,11.63
2023-02-19T08:33:49.520Z,9.10
2023-02-19T08:36:16.681Z,14.10
2023-02-19T08:38:43.753Z,13.02
2023-02-19T08:41:13.468Z,10.90
2023-02-19T08:43:42.233Z,14.15
2023-02-19T08:46:11.545Z,17.17
2023-02-19T08:48:39.694Z,15.75
2023-02-19T08:51:10.491Z,10.48
2023-02-19T08:53:40.140Z,13.35
2023-02-19T08:56:10.221Z,12.77
2023-02-19T08:58:37.700Z,11.23
2023-02-19T09:01:14.162Z,16.75
2023-02-19T09:03:42.396Z,7.78
2023-02-19T09:06:16.886Z,8.95
2023-02-19T09:08:44.067Z,7.72
2023-02-19T09:11:11.300Z,13.80
2023-02-19T09:13:38.423Z,12.10
2023-02-19T09:16:05.968Z,6.78
2023-02-19T09:18:33.402Z,8.45
2023-02-19T09:21:02.097Z,7.13
2023-02-19T09:23:29.368Z,10.52
2023-02-19T09:26:01.012Z,6.47
2023-02-19T09:28:28.359Z,8.18
2023-02-19T09:30:55.699Z,15.32
2023-02-19T09:33:22.815Z,6.65
2023-02-19T09:35:49.812Z,8.65
2023-02-19T09:38:16.914Z,10.27
2023-02-19T09:40:44.044Z,4.10
2023-02-19T09:43:19.818Z,3.30
2023-02-19T09:48:14.448Z,2.88
2023-02-19T09:50:48.189Z,3.55
2023-02-19T09:53:22.564Z,3.72
2023-02-19T09:55:50.111Z,4.13
2023-02-19T09:58:29.953Z,2.72
2023-02-19T10:01:01.276Z,3.58
2023-02-19T10:03:41.434Z,5.35
2023-02-19T10:06:23.620Z,3.53
2023-02-19T10:08:55.442Z,3.22
2023-02-19T10:11:25.826Z,4.63
2023-02-19T10:14:43.230Z,3.08
2023-02-19T10:17:30.407Z,3.63
2023-02-19T10:19:58.110Z,3.17
2023-02-19T10:22:25.681Z,1.95
2023-02-19T10:24:55.299Z,3.20
2023-02-19T10:27:22.695Z,2.95
2023-02-19T10:29:54.804Z,3.08
2023-02-19T10:32:25.811Z,3.15
2023-02-19T10:35:15.819Z,3.17
2023-02-19T10:37:50.021Z,1.63
2023-02-19T10:40:23.186Z,2.67
2023-02-19T10:42:54.900Z,7.07
2023-02-19T10:45:50.406Z,2.92
2023-02-19T10:48:42.451Z,2.47
2023-02-19T10:51:12.919Z,2.55
2023-02-19T10:54:06.471Z,3.22
2023-02-19T10:56:34.103Z,3.80
2023-02-19T10:59:19.118Z,1.65
2023-02-19T11:01:57.505Z,4.18
2023-02-19T11:04:27.638Z,3.08
2023-02-19T11:06:54.996Z,1.92
2023-02-19T11:09:40.714Z,2.22
2023-02-19T11:12:09.645Z,3.55
2023-02-19T11:14:36.876Z,2.42
2023-02-19T11:17:05.657Z,2.85
2023-02-19T11:19:44.510Z,2.05
2023-02-19T11:22:28.740Z,1.80
2023-02-19T11:24:59.432Z,2.65
2023-02-19T11:27:26.606Z,2.42
2023-02-19T11:29:53.651Z,2.03
2023-02-19T11:32:20.692Z,2.40
2023-02-19T11:34:49.364Z,3.20
2023-02-19T11:37:19.320Z,2.13
2023-02-19T11:39:49.878Z,2.20
2023-02-19T11:42:37.578Z,2.60
2023-02-19T11:45:30.202Z,2.00
2023-02-19T11:48:39.884Z,2.47
2023-02-19T11:51:52.295Z,2.67
2023-02-19T11:54:39.794Z,4.13
2023-02-19T11:57:49.699Z,2.53
2023-02-19T12:00:29.975Z,1.70
2023-02-19T12:03:11.223Z,3.90
2023-02-19T12:06:05.856Z,3.83
2023-02-19T12:08:47.845Z,2.38
2023-02-19T12:11:44.895Z,2.17
2023-02-19T12:15:00.470Z,3.42
2023-02-19T12:18:04.606Z,3.83
2023-02-19T12:21:06.730Z,3.75
2023-02-19T12:23:39.354Z,3.13
2023-02-19T12:27:05.409Z,2.50
2023-02-19T12:30:13.114Z,2.58
2023-02-19T12:33:15.161Z,2.95
2023-02-19T12:36:13.589Z,2.90
2023-02-19T12:39:02.839Z,4.25
2023-02-19T12:41:46.726Z,3.75
2023-02-19T12:44:36.161Z,3.20
2023-02-19T12:47:06.793Z,3.22
2023-02-19T12:49:40.876Z,3.60
2023-02-19T12:52:20.705Z,2.53
2023-02-19T12:55:00.561Z,2.35
2023-02-19T12:57:35.393Z,2.33
2023-02-19T13:00:42.816Z,2.83
2023-02-19T13:03:38.334Z,2.75
2023-02-19T13:06:26.747Z,3.78
2023-02-19T13:09:06.809Z,2.67
2023-02-19T13:11:52.618Z,6.07
2023-02-19T13:14:43.025Z,4.15
2023-02-19T13:17:48.025Z,2.50
2023-02-19T13:20:27.162Z,4.88
2023-02-19T13:23:37.391Z,4.05
2023-02-19T13:26:25.531Z,3.22
2023-02-19T13:29:13.707Z,3.38
2023-02-19T13:32:30.588Z,2.90
2023-02-19T13:35:31.102Z,4.22
2023-02-19T13:38:02.711Z,3.47
2023-02-19T13:40:35.990Z,4.10
2023-02-19T13:43:23.277Z,6.32
2023-02-19T13:45:57.654Z,5.18
2023-02-19T13:48:24.519Z,3.08
2023-02-19T13:51:18.740Z,5.50
2023-02-19T13:53:45.637Z,3.55
2023-02-19T13:56:41.936Z,3.42
2023-02-19T13:59:24.986Z,4.60
2023-02-19T14:01:54.870Z,3.10
2023-02-19T14:04:41.803Z,2.22
2023-02-19T14:07:08.633Z,4.97
2023-02-19T14:09:41.094Z,4.40
2023-02-19T14:12:08.000Z,5.13
2023-02-19T14:14:42.916Z,4.45
2023-02-19T14:17:09.764Z,2.90
2023-02-19T14:19:42.844Z,8.30
2023-02-19T14:22:53.048Z,2.78
2023-02-19T14:25:31.957Z,7.35
2023-02-19T14:28:10.633Z,5.25
2023-02-19T14:30:49.134Z,4.30
2023-02-19T14:33:19.908Z,1.25
2023-02-19T14:35:51.599Z,2.88
2023-02-19T14:38:37.057Z,1.30
2023-02-19T14:41:05.996Z,1.92
2023-02-19T14:43:34.743Z,3.78
2023-02-19T14:46:34.101Z,4.63
2023-02-19T14:49:20.123Z,1.20
2023-02-19T14:51:53.138Z,4.57
2023-02-19T14:54:56.127Z,17.08
2023-02-19T14:57:33.687Z,13.15
2023-02-19T15:00:23.281Z,8.25
2023-02-19T15:02:53.188Z,5.03
2023-02-19T15:05:38.849Z,115.55
2023-02-19T15:08:14.866Z,41.38
2023-02-19T15:10:43.629Z,20.08
2023-02-19T15:13:17.457Z,10.18
2023-02-19T15:15:46.500Z,15.93
2023-02-19T15:18:20.791Z,3.22
2023-02-19T15:20:48.754Z,1.63
2023-02-19T15:23:23.321Z,1.60
2023-02-19T15:25:51.119Z,2.78
2023-02-19T15:28:23.802Z,2.75
2023-02-19T15:30:57.211Z,2.20
2023-02-19T15:33:24.977Z,3.72
2023-02-19T15:36:15.039Z,6.43
2023-02-19T15:38:42.047Z,3.15
2023-02-19T15:41:24.036Z,2.00
2023-02-19T15:44:18.275Z,1.80
2023-02-19T15:46:47.019Z,2.28
2023-02-19T15:49:24.013Z,3.38
2023-02-19T15:52:04.534Z,2.40
2023-02-19T15:54:49.392Z,2.30
2023-02-19T15:57:23.875Z,4.63
2023-02-19T15:59:59.501Z,3.63
2023-02-19T16:04:54.805Z,1.08
2023-02-19T16:07:28.789Z,2.20
2023-02-19T16:10:24.582Z,1.92
2023-02-19T16:13:03.471Z,1.40
2023-02-19T16:15:33.067Z,1.02
2023-02-19T16:18:00.876Z,5.43
2023-02-19T16:20:34.005Z,1.90
2023-02-19T16:23:12.292Z,2.15
2023-02-19T16:25:44.101Z,4.05
2023-02-19T16:28:23.337Z,0.90
2023-02-19T16:31:08.734Z,2.38
2023-02-19T16:33:53.552Z,2.80
2023-02-19T16:36:28.826Z,1.60
2023-02-19T16:39:17.262Z,1.15
2023-02-19T16:41:47.526Z,3.47
2023-02-19T16:44:30.972Z,5.80
2023-02-19T16:47:05.008Z,3.85
2023-02-19T16:49:32.431Z,1.33
2023-02-19T16:52:03.184Z,2.42
2023-02-19T16:54:31.084Z,1.70
2023-02-19T16:56:58.065Z,7.35
2023-02-19T16:59:25.001Z,1.42
2023-02-19T17:01:52.018Z,1.83
2023-02-19T17:04:19.167Z,2.47
2023-02-19T17:06:47.492Z,3.63
2023-02-19T17:09:14.638Z,1.70
2023-02-19T17:11:41.594Z,2.28
2023-02-19T17:14:09.362Z,2.45
2023-02-19T17:16:39.835Z,1.58
2023-02-19T17:19:15.911Z,3.30
2023-02-19T17:21:44.286Z,1.98
2023-02-19T17:24:11.981Z,2.33
2023-02-19T17:26:38.973Z,4.13
2023-02-19T17:29:08.830Z,2.88
2023-02-19T17:31:35.807Z,1.45
2023-02-19T17:34:02.807Z,2.15
2023-02-19T17:36:31.842Z,3.05
2023-02-19T17:39:00.779Z,2.65
2023-02-19T17:41:29.196Z,1.58
2023-02-19T17:43:56.287Z,3.63
2023-02-19T17:46:27.690Z,1.65
2023-02-19T17:48:55.242Z,2.55
2023-02-19T17:51:22.767Z,3.42
2023-02-19T17:53:50.033Z,2.00
2023-02-19T17:56:26.453Z,2.65
2023-02-19T17:58:55.378Z,3.58
2023-02-19T18:01:22.854Z,3.78
2023-02-19T18:03:50.470Z,3.40
2023-02-19T18:06:17.665Z,9.32
2023-02-19T18:08:51.265Z,3.13
2023-02-19T18:11:19.614Z,2.88
2023-02-19T18:13:48.095Z,3.60
2023-02-19T18:16:20.896Z,3.70
2023-02-19T18:18:48.046Z,3.92
2023-02-19T18:21:15.436Z,2.85
2023-02-19T18:23:42.813Z,9.38
2023-02-19T18:26:11.622Z,3.22
2023-02-19T18:28:39.439Z,3.80
2023-02-19T18:31:06.683Z,3.95
2023-02-19T18:33:35.325Z,3.88
2023-02-19T18:36:02.684Z,5.53
2023-02-19T18:38:29.661Z,5.05
2023-02-19T18:40:58.685Z,2.90
2023-02-19T18:43:25.974Z,5.50
2023-02-19T18:45:52.967Z,3.75
2023-02-19T18:48:20.733Z,6.72
2023-02-19T18:50:47.717Z,4.10
2023-02-19T18:53:14.804Z,5.63
2023-02-19T18:55:42.005Z,3.90
2023-02-19T18:58:08.963Z,8.05
2023-02-19T19:00:36.293Z,4.22
2023-02-19T19:03:03.348Z,4.03
2023-02-19T19:05:30.518Z,4.95
2023-02-19T19:07:59.672Z,5.82
2023-02-19T19:10:28.058Z,4.70
2023-02-19T19:12:55.133Z,13.43
2023-02-19T19:15:23.352Z,6.00
2023-02-19T19:17:51.395Z,4.00
2023-02-19T19:20:21.299Z,3.85
2023-02-19T19:22:54.483Z,4.65
2023-02-19T19:25:23.142Z,5.57
2023-02-19T19:28:44.331Z,3.45
2023-02-19T19:31:13.317Z,3.63
2023-02-19T19:33:42.061Z,3.20
2023-02-19T19:36:10.755Z,4.40
2023-02-19T19:38:38.392Z,5.82
2023-02-19T19:41:05.809Z,5.50
2023-02-19T19:43:33.510Z,5.85
2023-02-19T19:46:01.009Z,3.45
2023-02-19T19:48:28.710Z,3.55
2023-02-19T19:50:57.119Z,4.78
2023-02-19T19:53:24.513Z,3.53
2023-02-19T19:55:52.116Z,4.85
2023-02-19T19:58:24.474Z,2.97
2023-02-19T20:00:52.306Z,4.70
2023-02-19T20:03:20.401Z,4.32
2023-02-19T20:05:51.121Z,3.50
2023-02-19T20:08:18.455Z,3.42
2023-02-19T20:10:45.755Z,3.65
2023-02-19T20:13:17.887Z,5.32
2023-02-19T20:15:45.347Z,5.63
2023-02-19T20:18:13.087Z,3.63
2023-02-19T20:20:40.052Z,4.18
2023-02-19T20:23:07.121Z,4.45
2023-02-19T20:25:34.278Z,2.95
2023-02-19T20:28:02.083Z,4.25
2023-02-19T20:30:39.017Z,4.53
2023-02-19T20:33:24.567Z,6.40
2023-02-19T20:35:51.803Z,4.57
2023-02-19T20:38:18.796Z,6.30
2023-02-19T20:40:45.723Z,4.20
2023-02-19T20:43:13.117Z,5.03
2023-02-19T20:45:41.065Z,4.10
2023-02-19T20:48:08.004Z,4.18
2023-02-19T20:50:35.357Z,4.45
2023-02-19T20:53:02.658Z,3.22
2023-02-19T20:55:29.652Z,4.25
2023-02-19T20:57:56.759Z,3.15
2023-02-19T21:00:24.138Z,4.75
2023-02-19T21:02:54.255Z,3.30
2023-02-19T21:05:21.524Z,8.63
2023-02-19T21:07:48.664Z,3.95
2023-02-19T21:10:15.653Z,4.32
2023-02-19T21:12:42.565Z,3.85
2023-02-19T21:15:09.828Z,5.55
2023-02-19T21:17:36.775Z,4.18
2023-02-19T21:20:03.916Z,6.78
2023-02-19T21:22:30.914Z,5.72
2023-02-19T21:24:57.861Z,5.32
2023-02-19T21:27:24.800Z,5.78
2023-02-19T21:29:51.781Z,8.38
2023-02-19T21:32:19.377Z,7.72
2023-02-19T21:38:33.140Z,6.93
2023-02-19T21:41:00.014Z,12.35
2023-02-19T21:43:29.859Z,10.02
2023-02-19T21:45:57.816Z,9.38
2023-02-19T21:48:29.216Z,10.13
2023-02-19T21:50:56.208Z,11.45
2023-02-19T21:53:23.319Z,13.07
2023-02-19T21:55:58.308Z,12.00
2023-02-19T21:58:26.556Z,10.98
2023-02-19T22:00:54.306Z,12.68
2023-02-19T22:03:22.090Z,13.85
2023-02-19T22:05:49.080Z,11.55
2023-02-19T22:08:17.418Z,14.38
2023-02-19T22:10:44.616Z,17.55
2023-02-19T22:13:11.708Z,9.50
2023-02-19T22:15:39.121Z,8.57
2023-02-19T22:18:06.538Z,8.88
2023-02-19T22:20:34.920Z,10.95
2023-02-19T22:23:01.945Z,15.25
2023-02-19T22:25:29.106Z,10.80
2023-02-19T22:27:56.008Z,11.40
2023-02-19T22:30:23.065Z,15.60
2023-02-19T22:32:50.100Z,12.20
2023-02-19T22:35:17.342Z,12.52
2023-02-19T22:37:44.234Z,9.50
2023-02-19T22:40:11.914Z,11.15
2023-02-19T22:42:38.857Z,17.05
2023-02-19T22:45:06.994Z,11.98
2023-02-19T22:47:33.909Z,12.32
2023-02-19T22:50:00.944Z,14.75
2023-02-19T22:52:28.200Z,14.18
2023-02-19T22:54:56.022Z,10.45
2023-02-19T22:57:22.968Z,12.02
2023-02-19T22:59:49.976Z,10.93
2023-02-19T23:02:17.241Z,17.23
2023-02-19T23:04:44.232Z,10.65
2023-02-19T23:07:11.228Z,12.18
2023-02-19T23:09:38.292Z,9.57
2023-02-19T23:12:11.226Z,11.80
2023-02-19T23:14:45.063Z,12.68
2023-02-19T23:19:41.129Z,9.68
2023-02-19T23:22:08.336Z,10.52
2023-02-19T23:24:35.292Z,13.65
2023-02-19T23:27:02.540Z,9.85
2023-02-19T23:29:30.769Z,9.73
2023-02-19T23:31:58.413Z,11.88
2023-02-19T23:34:25.485Z,9.23
2023-02-19T23:36:52.557Z,8.57
2023-02-19T23:39:21.558Z,10.38
2023-02-19T23:41:51.767Z,9.02
2023-02-19T23:44:20.732Z,10.88
2023-02-19T23:46:48.691Z,12.20
2023-02-19T23:49:16.224Z,10.05
2023-02-19T23:51:43.308Z,9.95
2023-02-19T23:54:12.304Z,11.25
2023-02-19T23:56:39.432Z,12.27
2023-02-19T23:59:06.445Z,7.20
